createdAt,value
2019-03-20T18:36:59.587Z,3.26
2019-03-20T18:39:27.431Z,2.92
2019-03-20T18:41:57.925Z,2.92
2019-03-20T18:44:26.141Z,2.58
2019-03-20T18:46:54.697Z,2.18
2019-03-20T18:49:21.964Z,1.99
2019-03-20T18:51:49.627Z,1.85
2019-03-20T18:54:17.552Z,1.72
2019-03-20T18:56:45.739Z,1.69
2019-03-20T18:59:13.703Z,1.61
2019-03-20T19:01:41.092Z,1.55
2019-03-20T19:04:08.548Z,1.50
2019-03-20T19:06:36.848Z,1.46
2019-03-20T19:09:07.808Z,1.40
2019-03-20T19:11:35.664Z,1.36
2019-03-20T19:14:03.817Z,1.25
2019-03-20T19:16:31.597Z,1.15
2019-03-20T19:18:59.115Z,1.10
2019-03-20T19:21:26.757Z,1.19
2019-03-20T19:23:54.446Z,1.09
2019-03-20T19:26:22.755Z,1.18
2019-03-20T19:28:50.435Z,1.36
2019-03-20T19:31:19.703Z,1.30
2019-03-20T19:33:47.951Z,1.21
2019-03-20T19:36:16.549Z,1.02
2019-03-20T19:38:44.764Z,0.83
2019-03-20T19:41:12.749Z,0.76
2019-03-20T19:43:40.670Z,0.62
2019-03-20T19:46:08.332Z,0.53
2019-03-20T19:48:36.005Z,0.50
2019-03-20T19:51:03.750Z,0.32
2019-03-20T19:53:31.443Z,0.26
2019-03-20T19:55:59.373Z,0.25
2019-03-20T19:58:26.956Z,0.20
2019-03-20T20:00:56.226Z,0.13
2019-03-20T20:03:23.824Z,0.07
2019-03-20T20:05:52.905Z,0.09
2019-03-20T20:08:20.413Z,0.03
2019-03-20T20:10:49.626Z,0.03
2019-03-20T20:13:18.334Z,0.05
2019-03-20T20:15:46.001Z,-0.08
2019-03-20T20:18:13.890Z,-0.27
2019-03-20T20:20:42.104Z,-0.20
2019-03-20T20:23:10.697Z,-0.23
2019-03-20T20:25:38.460Z,-0.33
2019-03-20T20:28:06.142Z,-0.34
2019-03-20T20:30:34.579Z,-0.31
2019-03-20T20:33:02.396Z,-0.33
2019-03-20T20:35:30.542Z,-0.41
2019-03-20T20:37:58.956Z,-0.34
2019-03-20T20:40:27.172Z,-0.07
2019-03-20T20:42:56.829Z,-0.04
2019-03-20T20:45:24.563Z,-0.10
2019-03-20T20:47:52.370Z,-0.15
2019-03-20T20:50:21.051Z,-0.05
2019-03-20T20:52:49.114Z,0.02
2019-03-20T20:55:17.206Z,0.01
2019-03-20T20:57:45.337Z,-0.08
2019-03-20T21:00:15.250Z,-0.21
2019-03-20T21:02:42.742Z,-0.33
2019-03-20T21:05:11.004Z,-0.37
2019-03-20T21:07:39.092Z,-0.42
2019-03-20T21:10:07.038Z,-0.27
2019-03-20T21:12:36.023Z,-0.07
2019-03-20T21:15:04.120Z,-0.19
2019-03-20T21:17:42.327Z,-0.28
2019-03-20T21:20:14.407Z,-0.18
2019-03-20T21:23:27.015Z,-0.02
2019-03-20T21:25:56.477Z,-0.01
2019-03-20T21:28:57.501Z,-0.32
2019-03-20T21:31:53.754Z,-0.47
2019-03-20T21:35:01.446Z,-0.43
2019-03-20T21:38:03.528Z,-0.33
2019-03-20T21:40:35.526Z,-0.37
2019-03-20T21:43:40.611Z,-0.53
2019-03-20T21:46:51.240Z,-0.70
2019-03-20T21:49:19.534Z,-0.75
2019-03-20T21:51:48.246Z,-1.23
2019-03-20T21:54:57.236Z,-1.23
2019-03-20T21:58:06.956Z,-1.46
2019-03-20T22:01:10.988Z,-1.66
2019-03-20T22:03:38.927Z,-1.75
2019-03-20T22:07:03.560Z,-2.03
2019-03-20T22:10:15.834Z,-2.03
2019-03-20T22:13:33.072Z,-1.83
2019-03-20T22:17:02.771Z,-1.85
2019-03-20T22:20:14.922Z,-1.85
2019-03-20T22:23:42.051Z,-1.73
2019-03-20T22:26:39.963Z,-1.81
2019-03-20T22:29:23.242Z,-1.87
2019-03-20T22:32:50.443Z,-1.95
2019-03-20T22:35:49.261Z,-1.93
2019-03-20T22:38:53.665Z,-1.93
2019-03-20T22:41:55.914Z,-2.10
2019-03-20T22:44:24.503Z,-2.16
2019-03-20T22:47:32.581Z,-2.10
2019-03-20T22:50:14.868Z,-2.14
2019-03-20T22:53:22.018Z,-2.05
2019-03-20T22:56:19.108Z,-2.02
2019-03-20T22:58:48.694Z,-2.02
2019-03-20T23:01:27.397Z,-1.86
2019-03-20T23:04:01.531Z,-1.92
2019-03-20T23:06:30.332Z,-1.91
2019-03-20T23:08:58.939Z,-2.00
2019-03-20T23:11:28.423Z,-2.11
2019-03-20T23:13:56.530Z,-2.18
2019-03-20T23:16:24.659Z,-2.46
2019-03-20T23:18:52.666Z,-2.46
2019-03-20T23:21:20.724Z,-2.55
2019-03-20T23:23:49.288Z,-2.55
2019-03-20T23:26:17.220Z,-2.56
2019-03-20T23:28:44.990Z,-2.60
2019-03-20T23:31:13.719Z,-2.59
2019-03-20T23:33:42.151Z,-2.54
2019-03-20T23:36:10.692Z,-2.54
2019-03-20T23:38:39.592Z,-2.32
2019-03-20T23:41:08.436Z,-2.32
2019-03-20T23:43:36.853Z,-2.29
2019-03-20T23:46:06.409Z,-2.37
2019-03-20T23:48:40.542Z,-2.29
2019-03-20T23:51:11.281Z,-2.41
2019-03-20T23:53:40.713Z,-2.60
2019-03-20T23:56:09.260Z,-2.34
2019-03-20T23:58:38.713Z,-2.17
